createdAt,value
2018-02-23T00:01:11.796Z,15.17
2018-02-23T00:03:39.238Z,14.50
2018-02-23T00:06:06.680Z,17.47
2018-02-23T00:08:34.886Z,17.10
2018-02-23T00:11:02.330Z,16.47
2018-02-23T00:13:29.771Z,15.20
2018-02-23T00:15:57.211Z,15.80
2018-02-23T00:18:33.127Z,16.30
2018-02-23T00:21:00.564Z,16.00
2018-02-23T00:23:28.011Z,17.60
2018-02-23T00:25:56.217Z,14.80
2018-02-23T00:28:24.428Z,17.17
2018-02-23T00:30:51.875Z,14.63
2018-02-23T00:33:19.315Z,16.33
2018-02-23T00:35:46.752Z,14.80
2018-02-23T00:38:14.962Z,15.90
2018-02-23T00:40:42.412Z,16.47
2018-02-23T00:43:09.852Z,14.50
2018-02-23T00:45:37.299Z,15.13
2018-02-23T00:48:04.750Z,16.50
2018-02-23T00:50:32.191Z,17.90
2018-02-23T00:52:59.635Z,15.43
2018-02-23T00:55:27.896Z,15.30
2018-02-23T00:57:55.324Z,16.13
2018-02-23T01:00:23.179Z,16.63
2018-02-23T01:02:50.628Z,16.47
2018-02-23T01:05:18.071Z,16.10
2018-02-23T01:07:45.511Z,16.03
2018-02-23T01:10:12.952Z,16.43
2018-02-23T01:12:40.396Z,16.80
2018-02-23T01:15:08.603Z,17.00
2018-02-23T01:17:36.807Z,17.03
2018-02-23T01:20:04.255Z,17.93
2018-02-23T01:22:31.717Z,17.83
2018-02-23T01:24:59.159Z,16.93
2018-02-23T01:27:26.595Z,17.50
2018-02-23T01:29:54.040Z,17.53
2018-02-23T01:32:21.508Z,16.67
2018-02-23T01:34:48.956Z,16.40
2018-02-23T01:37:17.163Z,17.50
2018-02-23T01:39:45.375Z,17.70
2018-02-23T01:42:12.819Z,17.97
2018-02-23T01:44:40.269Z,17.43
2018-02-23T01:47:07.709Z,18.97
2018-02-23T01:49:35.916Z,17.30
2018-02-23T01:52:03.360Z,17.80
2018-02-23T01:54:30.806Z,17.53
2018-02-23T01:56:58.248Z,19.83
2018-02-23T01:59:27.279Z,17.60
2018-02-23T02:01:54.726Z,18.40
2018-02-23T02:04:22.167Z,19.13
2018-02-23T02:06:49.611Z,18.33
2018-02-23T02:09:17.052Z,17.80
2018-02-23T02:11:44.491Z,21.70
2018-02-23T02:14:11.935Z,18.53
2018-02-23T02:16:40.144Z,16.77
2018-02-23T02:19:08.354Z,20.00
2018-02-23T02:21:35.796Z,17.60
2018-02-23T02:24:03.240Z,18.70
2018-02-23T02:26:30.688Z,18.10
2018-02-23T02:28:58.907Z,18.60
2018-02-23T02:31:26.348Z,18.60
2018-02-23T02:33:53.804Z,18.93
2018-02-23T02:36:21.541Z,18.77
2018-02-23T02:38:49.753Z,18.63
2018-02-23T02:41:17.199Z,18.60
2018-02-23T02:43:44.640Z,17.67
2018-02-23T02:46:12.106Z,18.60
2018-02-23T02:48:39.539Z,19.07
2018-02-23T02:51:06.992Z,19.07
2018-02-23T02:53:34.430Z,18.90
2018-02-23T02:56:01.877Z,18.00
2018-02-23T02:58:29.322Z,19.00
2018-02-23T03:00:56.772Z,19.87
2018-02-23T03:03:24.217Z,17.17
2018-02-23T03:05:51.663Z,17.97
2018-02-23T03:08:19.104Z,16.80
2018-02-23T03:10:46.558Z,17.73
2018-02-23T03:13:13.996Z,13.90
2018-02-23T03:15:41.448Z,16.10
2018-02-23T03:18:08.889Z,14.63
2018-02-23T03:20:36.339Z,13.40
2018-02-23T03:23:03.785Z,14.90
2018-02-23T03:25:32.007Z,16.47
2018-02-23T03:27:59.444Z,14.87
2018-02-23T03:30:26.906Z,13.63
2018-02-23T03:32:54.345Z,13.03
2018-02-23T03:35:21.816Z,13.27
2018-02-23T03:37:49.254Z,12.97
2018-02-23T03:40:16.712Z,14.20
2018-02-23T03:42:44.148Z,11.50
2018-02-23T03:45:12.372Z,12.87
2018-02-23T03:47:39.820Z,12.73
2018-02-23T03:50:08.036Z,10.00
2018-02-23T03:52:36.236Z,12.20
2018-02-23T03:55:03.692Z,11.60
2018-02-23T03:57:31.132Z,11.67
2018-02-23T03:59:58.576Z,12.40
2018-02-23T04:02:26.018Z,9.97
2018-02-23T04:04:53.463Z,11.27
2018-02-23T04:07:20.907Z,11.17
2018-02-23T04:09:49.124Z,10.97
2018-02-23T04:12:16.611Z,10.20
2018-02-23T04:14:44.061Z,11.33
2018-02-23T04:17:12.266Z,11.53
2018-02-23T04:19:40.492Z,12.17
2018-02-23T04:22:07.932Z,11.67
2018-02-23T04:24:35.388Z,11.10
2018-02-23T04:27:02.833Z,10.90
2018-02-23T04:29:30.283Z,11.60
2018-02-23T04:31:58.492Z,11.97
2018-02-23T04:34:26.716Z,12.27
2018-02-23T04:36:54.157Z,11.30
2018-02-23T04:39:21.624Z,10.90
2018-02-23T04:41:49.096Z,11.77
2018-02-23T04:44:16.540Z,11.90
2018-02-23T04:46:43.990Z,11.40
2018-02-23T04:49:12.224Z,10.77
2018-02-23T04:51:40.414Z,12.07
2018-02-23T04:54:07.848Z,11.07
2018-02-23T04:56:35.297Z,10.73
2018-02-23T04:59:02.740Z,12.13
2018-02-23T05:01:30.956Z,11.30
2018-02-23T05:03:58.396Z,12.37
2018-02-23T05:06:25.848Z,13.03
2018-02-23T05:08:53.321Z,11.63
2018-02-23T05:11:20.765Z,12.00
2018-02-23T05:13:48.203Z,12.20
2018-02-23T05:16:15.659Z,12.00
2018-02-23T05:18:43.105Z,11.60
2018-02-23T05:21:10.550Z,14.17
2018-02-23T05:23:38.024Z,13.80
2018-02-23T05:26:05.479Z,13.00
2018-02-23T05:28:32.931Z,13.40
2018-02-23T05:31:00.384Z,12.30
2018-02-23T05:33:27.824Z,13.43
2018-02-23T05:35:55.281Z,12.53
2018-02-23T05:38:24.536Z,12.30
2018-02-23T05:40:51.988Z,14.00
2018-02-23T05:43:19.428Z,14.10
2018-02-23T05:45:46.876Z,15.93
2018-02-23T05:48:14.319Z,12.93
2018-02-23T05:50:41.763Z,13.37
2018-02-23T05:53:09.201Z,13.93
2018-02-23T05:55:36.712Z,12.93
2018-02-23T05:58:04.140Z,13.83
2018-02-23T06:00:31.590Z,13.80
2018-02-23T06:02:59.032Z,13.60
2018-02-23T06:05:26.520Z,14.10
2018-02-23T06:07:53.927Z,15.07
2018-02-23T06:10:21.368Z,13.60
2018-02-23T06:12:48.824Z,12.13
2018-02-23T06:15:16.264Z,14.43
2018-02-23T06:17:49.528Z,13.23
2018-02-23T06:20:32.577Z,12.77
2018-02-23T06:23:00.032Z,12.20
2018-02-23T06:25:27.468Z,12.13
2018-02-23T06:27:55.689Z,13.00
2018-02-23T06:30:23.136Z,13.67
2018-02-23T06:32:50.584Z,11.17
2018-02-23T06:35:18.027Z,12.37
2018-02-23T06:37:46.248Z,13.07
2018-02-23T06:40:13.697Z,11.53
2018-02-23T06:42:41.139Z,12.20
2018-02-23T06:45:08.577Z,12.83
2018-02-23T06:47:36.784Z,13.60
2018-02-23T06:50:04.227Z,12.97
2018-02-23T06:52:31.679Z,11.97
2018-02-23T06:54:59.116Z,14.70
2018-02-23T06:57:27.332Z,13.13
2018-02-23T06:59:54.769Z,13.30
2018-02-23T07:02:22.204Z,13.40
2018-02-23T07:04:49.660Z,13.70
2018-02-23T07:07:17.099Z,13.50
2018-02-23T07:09:44.543Z,13.60
2018-02-23T07:12:11.983Z,13.23
2018-02-23T07:14:40.200Z,14.63
2018-02-23T07:17:07.652Z,12.87
2018-02-23T07:19:35.099Z,13.97
2018-02-23T07:22:02.544Z,14.53
2018-02-23T07:24:29.992Z,12.87
2018-02-23T07:26:57.431Z,12.57
2018-02-23T07:29:24.888Z,14.27
2018-02-23T07:31:52.383Z,13.87
2018-02-23T07:34:19.772Z,13.60
2018-02-23T07:36:47.214Z,12.80
2018-02-23T07:39:15.431Z,13.90
2018-02-23T07:41:42.880Z,15.70
2018-02-23T07:44:11.100Z,13.53
2018-02-23T07:46:38.543Z,15.80
2018-02-23T07:49:06.010Z,14.60
2018-02-23T07:51:33.448Z,14.50
2018-02-23T07:54:00.888Z,14.97
2018-02-23T07:56:28.332Z,14.80
2018-02-23T07:58:55.772Z,14.80
2018-02-23T08:01:23.986Z,15.23
2018-02-23T08:03:51.436Z,15.07
2018-02-23T08:06:18.893Z,15.50
2018-02-23T08:08:46.324Z,13.87
2018-02-23T08:11:13.771Z,15.40
2018-02-23T08:13:41.211Z,15.33
2018-02-23T08:16:08.652Z,15.20
2018-02-23T08:18:36.860Z,12.63
2018-02-23T08:21:05.080Z,14.90
2018-02-23T08:23:32.523Z,14.17
2018-02-23T08:25:59.969Z,14.27
2018-02-23T08:28:27.407Z,14.63
2018-02-23T08:30:55.616Z,14.50
2018-02-23T08:33:23.055Z,16.90
2018-02-23T08:35:50.508Z,16.80
2018-02-23T08:38:17.950Z,15.53
2018-02-23T08:40:46.159Z,15.83
2018-02-23T08:43:13.600Z,16.20
2018-02-23T08:45:41.047Z,13.90
2018-02-23T08:48:08.487Z,15.57
2018-02-23T08:50:36.004Z,16.30
2018-02-23T08:53:03.444Z,14.40
2018-02-23T08:55:31.662Z,16.63
2018-02-23T08:57:59.123Z,15.20
2018-02-23T09:00:27.330Z,17.00
2018-02-23T09:02:55.544Z,16.03
2018-02-23T09:05:22.980Z,16.20
2018-02-23T09:07:50.419Z,15.50
2018-02-23T09:10:17.876Z,15.83
2018-02-23T09:12:45.320Z,13.67
2018-02-23T09:15:12.756Z,15.80
2018-02-23T09:17:40.204Z,13.53
2018-02-23T09:20:08.416Z,16.60
2018-02-23T09:22:35.864Z,14.30
2018-02-23T09:25:03.299Z,16.03
2018-02-23T09:27:30.755Z,14.80
2018-02-23T09:29:58.193Z,15.13
2018-02-23T09:32:38.734Z,17.53
2018-02-23T09:35:06.175Z,15.97
2018-02-23T09:37:33.620Z,16.57
2018-02-23T09:40:01.066Z,16.37
2018-02-23T09:42:29.276Z,15.90
2018-02-23T09:44:57.492Z,16.43
2018-02-23T09:47:24.944Z,16.30
2018-02-23T09:49:53.152Z,16.67
2018-02-23T09:52:20.603Z,15.90
2018-02-23T09:54:48.041Z,14.77
2018-02-23T09:57:15.503Z,14.97
2018-02-23T09:59:42.964Z,14.40
2018-02-23T10:02:11.164Z,16.40
2018-02-23T10:04:39.389Z,16.87
2018-02-23T10:07:06.825Z,14.50
2018-02-23T10:09:34.268Z,15.60
2018-02-23T10:12:01.714Z,16.87
2018-02-23T10:14:29.941Z,15.37
2018-02-23T10:16:57.394Z,16.93
2018-02-23T10:19:25.600Z,18.27
2018-02-23T10:21:53.045Z,16.00
2018-02-23T10:24:20.496Z,15.60
2018-02-23T10:26:47.934Z,16.10
2018-02-23T10:29:16.148Z,15.43
2018-02-23T10:31:43.583Z,13.43
2018-02-23T10:34:11.040Z,16.90
2018-02-23T10:36:38.480Z,15.20
2018-02-23T10:39:06.692Z,14.53
2018-02-23T10:41:34.144Z,14.70
2018-02-23T10:44:02.366Z,16.20
2018-02-23T10:46:29.803Z,13.90
2018-02-23T10:48:57.272Z,15.63
2018-02-23T10:51:24.712Z,15.57
2018-02-23T10:53:52.159Z,14.30
2018-02-23T10:56:20.368Z,17.30
2018-02-23T10:58:47.821Z,16.00
2018-02-23T11:01:15.260Z,14.90
2018-02-23T11:03:42.703Z,18.87
2018-02-23T11:06:10.916Z,15.60
2018-02-23T11:08:39.125Z,14.27
2018-02-23T11:11:06.580Z,15.43
2018-02-23T11:13:34.029Z,17.03
2018-02-23T11:16:01.486Z,16.10
2018-02-23T11:18:28.923Z,17.03
2018-02-23T11:20:57.140Z,16.73
2018-02-23T11:23:25.340Z,16.67
2018-02-23T11:25:52.787Z,15.10
2018-02-23T11:28:20.228Z,15.90
2018-02-23T11:30:47.680Z,16.83
2018-02-23T11:33:15.128Z,15.40
2018-02-23T11:35:42.580Z,14.77
2018-02-23T11:38:10.020Z,15.37
2018-02-23T11:40:38.233Z,17.27
2018-02-23T11:43:05.672Z,14.73
2018-02-23T11:45:33.124Z,16.90
2018-02-23T11:48:00.568Z,16.30
2018-02-23T11:50:28.025Z,15.33
2018-02-23T11:52:55.447Z,15.50
2018-02-23T11:55:22.933Z,17.60
2018-02-23T11:57:50.384Z,15.60
2018-02-23T12:00:18.587Z,18.47
2018-02-23T12:02:46.036Z,15.60
2018-02-23T12:05:13.475Z,16.07
2018-02-23T12:07:40.927Z,17.23
2018-02-23T12:10:09.131Z,15.50
2018-02-23T12:12:36.575Z,17.80
2018-02-23T12:15:04.015Z,15.47
2018-02-23T12:17:31.459Z,15.60
2018-02-23T12:19:58.909Z,18.90
2018-02-23T12:22:26.352Z,15.00
2018-02-23T12:24:53.792Z,16.37
2018-02-23T12:27:21.235Z,16.00
2018-02-23T12:29:49.439Z,14.37
2018-02-23T12:32:16.900Z,16.90
2018-02-23T12:34:44.344Z,16.63
2018-02-23T12:37:11.783Z,15.70
2018-02-23T12:39:39.999Z,16.50
2018-02-23T12:42:07.443Z,16.50
2018-02-23T12:44:34.917Z,15.27
2018-02-23T12:47:02.332Z,16.47
2018-02-23T12:49:29.788Z,15.53
2018-02-23T12:51:57.233Z,15.47
2018-02-23T12:54:24.675Z,15.60
2018-02-23T12:56:52.432Z,15.97
2018-02-23T12:59:19.876Z,15.30
2018-02-23T13:01:47.324Z,15.67
2018-02-23T13:04:14.767Z,16.67
2018-02-23T13:06:42.223Z,16.13
2018-02-23T13:09:09.684Z,15.57
2018-02-23T13:11:37.164Z,14.17
2018-02-23T13:14:04.662Z,15.80
2018-02-23T13:16:32.111Z,15.50
2018-02-23T13:19:00.315Z,17.17
2018-02-23T13:21:27.760Z,17.60
2018-02-23T13:23:56.708Z,15.80
2018-02-23T13:26:24.164Z,15.60
2018-02-23T13:28:51.599Z,16.77
2018-02-23T13:31:19.057Z,16.87
2018-02-23T13:33:46.510Z,14.10
2018-02-23T13:36:13.955Z,14.83
2018-02-23T13:38:41.395Z,14.40
2018-02-23T13:41:24.528Z,15.80
2018-02-23T13:43:52.738Z,15.70
2018-02-23T13:46:20.947Z,16.60
2018-02-23T13:48:48.396Z,16.40
2018-02-23T13:51:15.844Z,15.90
2018-02-23T13:53:45.127Z,15.60
2018-02-23T13:56:12.575Z,17.77
2018-02-23T13:58:40.031Z,14.97
2018-02-23T14:01:07.480Z,16.23
2018-02-23T14:03:34.924Z,15.50
2018-02-23T14:06:03.267Z,16.47
2018-02-23T14:08:30.712Z,16.70
2018-02-23T14:10:58.936Z,16.80
2018-02-23T14:13:26.375Z,14.77
2018-02-23T14:15:53.819Z,16.20
2018-02-23T14:18:21.272Z,16.67
2018-02-23T14:20:48.756Z,14.80
2018-02-23T14:23:16.948Z,15.30
2018-02-23T14:25:45.156Z,15.63
2018-02-23T14:28:12.593Z,16.30
2018-02-23T14:30:40.048Z,15.70
2018-02-23T14:33:07.491Z,16.50
2018-02-23T14:35:35.705Z,15.47
2018-02-23T14:38:03.144Z,17.47
2018-02-23T14:40:30.583Z,15.00
2018-02-23T14:42:58.034Z,17.00
2018-02-23T14:45:26.240Z,16.87
2018-02-23T14:47:53.703Z,15.40
2018-02-23T14:50:33.833Z,15.87
2018-02-23T14:53:01.288Z,16.47
2018-02-23T14:55:28.727Z,16.87
2018-02-23T14:57:56.168Z,15.47
2018-02-23T15:00:24.272Z,16.10
2018-02-23T15:02:51.716Z,15.23
2018-02-23T15:05:19.152Z,16.00
2018-02-23T15:07:46.603Z,15.33
2018-02-23T15:10:14.044Z,14.80
2018-02-23T15:12:42.252Z,17.17
2018-02-23T15:15:10.456Z,17.03
2018-02-23T15:17:37.904Z,15.70
2018-02-23T15:20:05.348Z,17.27
2018-02-23T15:22:32.796Z,16.73
2018-02-23T15:25:00.246Z,16.67
2018-02-23T15:27:27.692Z,16.57
2018-02-23T15:29:55.134Z,17.00
2018-02-23T15:32:24.196Z,14.70
2018-02-23T15:34:51.651Z,15.80
2018-02-23T15:37:19.088Z,15.80
2018-02-23T15:39:46.536Z,16.70
2018-02-23T15:42:13.980Z,14.23
2018-02-23T15:44:41.424Z,16.63
2018-02-23T15:47:08.864Z,14.00
2018-02-23T15:49:41.915Z,16.00
2018-02-23T15:52:17.175Z,15.10
2018-02-23T15:54:44.621Z,15.20
2018-02-23T15:57:15.499Z,14.60
2018-02-23T15:59:42.943Z,15.80
2018-02-23T16:02:10.383Z,15.73
2018-02-23T16:04:37.828Z,15.90
2018-02-23T16:07:05.269Z,15.80
2018-02-23T16:09:33.484Z,15.37
2018-02-23T16:12:01.688Z,14.87
2018-02-23T16:14:29.138Z,14.13
2018-02-23T16:16:56.571Z,17.40
2018-02-23T16:19:24.020Z,14.70
2018-02-23T16:21:52.224Z,15.97
2018-02-23T16:24:19.684Z,17.70
2018-02-23T16:26:47.124Z,16.53
2018-02-23T16:29:14.580Z,16.43
2018-02-23T16:31:42.780Z,15.77
2018-02-23T16:34:10.231Z,15.93
2018-02-23T16:36:38.443Z,18.40
2018-02-23T16:39:06.651Z,16.40
2018-02-23T16:41:34.095Z,15.33
2018-02-23T16:44:01.531Z,15.97
2018-02-23T16:46:28.984Z,15.70
2018-02-23T16:48:57.189Z,16.10
2018-02-23T16:51:24.636Z,16.70
2018-02-23T16:53:52.080Z,16.17
2018-02-23T16:56:19.537Z,16.23
2018-02-23T16:58:46.971Z,15.37
2018-02-23T17:01:14.424Z,15.20
2018-02-23T17:03:41.867Z,17.93
2018-02-23T17:06:10.080Z,16.83
2018-02-23T17:08:37.551Z,16.07
2018-02-23T17:11:05.748Z,16.50
2018-02-23T17:13:33.956Z,16.13
2018-02-23T17:16:01.407Z,15.30
2018-02-23T17:18:28.845Z,16.40
2018-02-23T17:20:56.287Z,16.60
2018-02-23T17:23:23.732Z,14.90
2018-02-23T17:25:51.187Z,15.27
2018-02-23T17:28:18.620Z,16.83
2018-02-23T17:30:46.832Z,16.67
2018-02-23T17:33:14.280Z,14.60
2018-02-23T17:35:41.738Z,15.83
2018-02-23T17:38:09.169Z,17.30
2018-02-23T17:40:37.371Z,17.77
2018-02-23T17:43:05.588Z,17.70
2018-02-23T17:45:33.031Z,17.70
2018-02-23T17:48:00.488Z,17.03
2018-02-23T17:50:27.927Z,17.60
2018-02-23T17:52:55.444Z,19.40
2018-02-23T17:55:22.880Z,16.27
2018-02-23T17:57:50.328Z,17.07
2018-02-23T18:00:17.773Z,17.73
2018-02-23T18:02:45.220Z,18.03
2018-02-23T18:05:12.659Z,19.07
2018-02-23T18:07:40.108Z,19.07
2018-02-23T18:10:07.553Z,18.13
2018-02-23T18:12:35.768Z,18.90
2018-02-23T18:15:03.213Z,20.17
2018-02-23T18:17:30.652Z,20.07
2018-02-23T18:19:58.100Z,20.30
2018-02-23T18:22:25.559Z,20.20
2018-02-23T18:24:53.785Z,19.43
2018-02-23T18:27:21.972Z,19.77
2018-02-23T18:29:49.428Z,20.30
2018-02-23T18:32:16.867Z,19.70
2018-02-23T18:34:44.335Z,19.90
2018-02-23T18:37:11.773Z,20.77
2018-02-23T18:39:39.221Z,18.00
2018-02-23T18:42:06.660Z,19.43
2018-02-23T18:44:34.112Z,19.57
2018-02-23T18:47:01.549Z,19.70
2018-02-23T18:49:28.992Z,18.97
2018-02-23T18:51:56.440Z,19.90
2018-02-23T18:54:23.898Z,20.40
2018-02-23T18:56:51.345Z,19.67
2018-02-23T18:59:18.792Z,17.77
2018-02-23T19:01:46.232Z,18.23
2018-02-23T19:04:13.691Z,18.17
2018-02-23T19:06:41.133Z,19.10
2018-02-23T19:09:08.585Z,20.00
2018-02-23T19:11:36.048Z,19.00
2018-02-23T19:14:03.524Z,18.10
2018-02-23T19:16:30.961Z,21.10
2018-02-23T19:18:58.417Z,19.80
2018-02-23T19:21:25.879Z,19.13
2018-02-23T19:23:53.328Z,20.30
2018-02-23T19:26:20.780Z,18.67
2018-02-23T19:28:48.224Z,19.40
2018-02-23T19:31:15.677Z,20.90
2018-02-23T19:33:43.115Z,20.83
2018-02-23T19:36:10.564Z,19.00
2018-02-23T19:38:38.004Z,19.37
2018-02-23T19:41:06.220Z,21.13
2018-02-23T19:43:33.663Z,18.53
2018-02-23T19:46:01.111Z,19.70
2018-02-23T19:48:28.555Z,19.60
2018-02-23T19:50:56.763Z,19.80
2018-02-23T19:53:24.212Z,20.23
2018-02-23T19:55:52.428Z,19.17
2018-02-23T19:58:20.646Z,20.13
2018-02-23T20:00:48.092Z,19.83
2018-02-23T20:03:16.296Z,20.47
2018-02-23T20:05:44.512Z,21.53
2018-02-23T20:08:11.956Z,19.70
2018-02-23T20:10:39.400Z,20.80
2018-02-23T20:13:06.835Z,20.30
2018-02-23T20:15:35.056Z,18.70
2018-02-23T20:18:02.509Z,21.30
2018-02-23T20:20:29.947Z,21.07
2018-02-23T20:22:57.404Z,20.00
2018-02-23T20:25:24.840Z,23.47
2018-02-23T20:27:52.288Z,21.60
2018-02-23T20:30:19.732Z,19.47
2018-02-23T20:32:47.176Z,21.40
2018-02-23T20:35:14.620Z,20.90
2018-02-23T20:37:42.076Z,20.87
2018-02-23T20:40:09.528Z,20.87
2018-02-23T20:42:36.990Z,21.43
2018-02-23T20:45:04.420Z,19.00
2018-02-23T20:47:31.869Z,22.40
2018-02-23T20:49:59.308Z,21.70
2018-02-23T20:52:26.760Z,20.53
2018-02-23T20:54:54.959Z,21.70
2018-02-23T20:57:22.426Z,22.47
2018-02-23T20:59:49.848Z,21.73
2018-02-23T21:02:17.304Z,20.30
2018-02-23T21:04:44.745Z,19.83
2018-02-23T21:07:12.193Z,21.63
2018-02-23T21:09:39.638Z,20.47
2018-02-23T21:12:07.847Z,22.80
2018-02-23T21:14:35.287Z,20.97
2018-02-23T21:17:02.740Z,20.03
2018-02-23T21:19:30.180Z,19.77
2018-02-23T21:21:57.637Z,19.87
2018-02-23T21:24:25.078Z,22.80
2018-02-23T21:26:52.524Z,20.60
2018-02-23T21:29:19.964Z,20.50
2018-02-23T21:31:47.416Z,19.73
2018-02-23T21:34:14.865Z,20.50
2018-02-23T21:36:42.325Z,20.07
2018-02-23T21:39:09.763Z,18.33
2018-02-23T21:41:49.146Z,19.23
2018-02-23T21:44:16.616Z,22.03
2018-02-23T21:46:44.063Z,23.30
2018-02-23T21:49:11.504Z,18.57
2018-02-23T21:51:38.951Z,20.83
2018-02-23T21:54:06.400Z,20.17
2018-02-23T21:56:33.852Z,21.10
2018-02-23T21:59:01.303Z,21.60
2018-02-23T22:01:28.751Z,20.97
2018-02-23T22:03:56.191Z,21.47
2018-02-23T22:06:23.648Z,21.80
2018-02-23T22:08:51.080Z,18.50
2018-02-23T22:11:18.520Z,21.00
2018-02-23T22:13:45.968Z,21.93
2018-02-23T22:16:13.413Z,21.40
2018-02-23T22:18:41.625Z,19.67
2018-02-23T22:21:09.072Z,21.60
2018-02-23T22:23:36.520Z,18.87
2018-02-23T22:26:03.962Z,19.50
2018-02-23T22:28:31.407Z,23.10
2018-02-23T22:30:58.856Z,21.67
2018-02-23T22:33:26.313Z,21.97
2018-02-23T22:35:53.751Z,20.80
2018-02-23T22:38:21.212Z,21.53
2018-02-23T22:40:48.655Z,23.47
2018-02-23T22:43:16.100Z,21.30
2018-02-23T22:45:43.540Z,21.00
2018-02-23T22:48:10.987Z,21.40
2018-02-23T22:50:38.429Z,22.10
2018-02-23T22:53:05.880Z,20.20
2018-02-23T22:55:33.324Z,19.50
2018-02-23T22:58:01.545Z,21.47
2018-02-23T23:00:28.984Z,18.50
2018-02-23T23:02:56.432Z,20.47
2018-02-23T23:05:23.871Z,20.40
2018-02-23T23:07:51.319Z,21.27
2018-02-23T23:10:18.755Z,20.03
2018-02-23T23:12:46.209Z,18.30
2018-02-23T23:15:13.662Z,21.60
2018-02-23T23:17:41.107Z,19.03
2018-02-23T23:20:08.563Z,19.40
2018-02-23T23:22:36.012Z,18.40
2018-02-23T23:25:04.232Z,18.00
2018-02-23T23:27:31.676Z,18.40
2018-02-23T23:29:59.124Z,20.70
2018-02-23T23:32:26.564Z,21.70
2018-02-23T23:34:54.793Z,18.17
2018-02-23T23:37:22.228Z,19.43
2018-02-23T23:39:49.672Z,18.23
2018-02-23T23:42:17.112Z,19.13
2018-02-23T23:44:44.560Z,20.57
2018-02-23T23:47:12.000Z,19.47
2018-02-23T23:49:39.452Z,21.30
2018-02-23T23:52:06.898Z,19.80
2018-02-23T23:54:34.352Z,19.20
2018-02-23T23:57:01.794Z,17.20
2018-02-23T23:59:30.040Z,20.67
